createdAt,value
2023-04-09T00:01:26.828Z,6.30
2023-04-09T00:06:30.107Z,6.30
2023-04-09T00:11:33.616Z,6.40
2023-04-09T00:16:37.281Z,6.40
2023-04-09T00:21:40.423Z,6.40
2023-04-09T00:26:43.656Z,6.40
2023-04-09T00:31:47.112Z,6.40
2023-04-09T00:36:50.768Z,6.40
2023-04-09T00:42:04.780Z,6.40
2023-04-09T00:47:08.196Z,6.40
2023-04-09T00:52:11.756Z,6.40
2023-04-09T00:57:16.131Z,6.40
2023-04-09T01:02:19.398Z,6.40
2023-04-09T01:07:51.556Z,6.40
2023-04-09T01:13:03.620Z,6.40
2023-04-09T01:18:12.090Z,6.40
2023-04-09T01:23:32.566Z,6.40
2023-04-09T01:28:43.015Z,6.40
2023-04-09T01:33:47.290Z,6.40
2023-04-09T01:38:52.740Z,6.50
2023-04-09T01:43:56.953Z,6.50
2023-04-09T01:49:00.986Z,6.50
2023-04-09T01:54:05.582Z,6.50
2023-04-09T01:59:08.973Z,6.50
2023-04-09T02:04:25.803Z,6.50
2023-04-09T02:09:32.052Z,6.50
2023-04-09T02:14:37.991Z,6.30
2023-04-09T02:19:46.535Z,6.10
2023-04-09T02:24:49.803Z,6.10
2023-04-09T02:29:53.428Z,6.10
2023-04-09T02:34:56.951Z,6.00
2023-04-09T02:40:00.142Z,6.00
2023-04-09T02:45:03.690Z,5.70
2023-04-09T02:50:07.588Z,5.60
2023-04-09T02:55:10.896Z,5.70
2023-04-09T03:00:15.053Z,5.80
2023-04-09T03:05:18.244Z,5.60
2023-04-09T03:10:21.662Z,5.50
2023-04-09T03:15:25.242Z,5.40
2023-04-09T03:20:28.434Z,5.30
2023-04-09T03:25:31.647Z,5.50
2023-04-09T03:30:35.183Z,5.40
2023-04-09T03:35:38.425Z,5.50
2023-04-09T03:40:43.384Z,5.60
2023-04-09T03:45:46.664Z,5.70
2023-04-09T03:50:49.798Z,5.80
2023-04-09T03:55:53.387Z,5.70
2023-04-09T04:00:56.675Z,5.80
2023-04-09T04:06:04.457Z,5.80
2023-04-09T04:11:07.936Z,5.80
2023-04-09T04:16:11.565Z,5.70
2023-04-09T04:21:16.347Z,5.80
2023-04-09T04:26:19.662Z,5.90
2023-04-09T04:31:23.149Z,6.00
2023-04-09T04:36:26.616Z,5.90
2023-04-09T04:41:30.116Z,5.90
2023-04-09T04:46:33.485Z,6.10
2023-04-09T04:51:37.127Z,6.20
2023-04-09T04:56:40.357Z,6.30
2023-04-09T05:01:43.829Z,6.20
2023-04-09T05:06:47.448Z,6.40
2023-04-09T05:11:50.877Z,6.40
2023-04-09T05:16:54.402Z,6.30
2023-04-09T05:21:57.792Z,6.30
2023-04-09T05:27:01.713Z,6.40
2023-04-09T05:32:05.020Z,6.50
2023-04-09T05:37:08.617Z,6.60
2023-04-09T05:42:11.849Z,6.50
2023-04-09T05:47:15.120Z,6.40
2023-04-09T05:52:18.455Z,6.40
2023-04-09T05:57:21.809Z,6.40
2023-04-09T06:02:25.901Z,6.30
2023-04-09T06:07:29.378Z,6.50
2023-04-09T06:12:35.823Z,6.50
2023-04-09T06:17:40.761Z,6.60
2023-04-09T06:22:44.208Z,6.60
2023-04-09T06:27:47.710Z,6.70
2023-04-09T06:32:54.789Z,6.60
2023-04-09T06:37:58.776Z,6.70
2023-04-09T06:43:01.918Z,7.00
2023-04-09T06:48:05.772Z,7.20
2023-04-09T06:53:09.118Z,7.10
2023-04-09T06:58:12.488Z,7.10
2023-04-09T07:03:15.904Z,7.20
2023-04-09T07:08:19.048Z,7.10
2023-04-09T07:13:22.420Z,7.30
2023-04-09T07:18:25.766Z,7.40
2023-04-09T07:23:29.036Z,7.20
2023-04-09T07:28:32.856Z,7.30
2023-04-09T07:33:36.496Z,7.50
2023-04-09T07:38:39.857Z,7.60
2023-04-09T07:43:43.430Z,7.60
2023-04-09T07:48:48.312Z,7.70
2023-04-09T07:53:51.676Z,7.90
2023-04-09T07:58:55.072Z,8.00
2023-04-09T08:03:58.394Z,8.10
2023-04-09T08:09:02.220Z,8.00
2023-04-09T08:14:06.802Z,7.80
2023-04-09T08:19:10.664Z,8.10
2023-04-09T08:24:14.549Z,8.10
2023-04-09T08:29:17.839Z,8.10
2023-04-09T08:34:22.574Z,8.20
2023-04-09T08:39:25.905Z,8.30
2023-04-09T08:44:30.198Z,8.60
2023-04-09T08:49:33.926Z,8.80
2023-04-09T08:54:38.322Z,8.80
2023-04-09T08:59:41.529Z,8.80
2023-04-09T09:04:49.085Z,8.90
2023-04-09T09:09:53.935Z,9.00
2023-04-09T09:14:57.241Z,9.00
2023-04-09T09:20:14.244Z,9.10
2023-04-09T09:25:17.515Z,9.00
2023-04-09T09:30:27.829Z,9.00
2023-04-09T09:35:31.510Z,9.00
2023-04-09T09:40:34.760Z,9.20
2023-04-09T09:45:38.735Z,9.40
2023-04-09T09:50:43.321Z,9.50
2023-04-09T09:55:52.422Z,9.70
2023-04-09T10:00:57.934Z,9.80
2023-04-09T10:06:03.351Z,10.30
2023-04-09T10:11:08.135Z,10.30
2023-04-09T10:16:11.691Z,10.30
2023-04-09T10:21:14.967Z,10.60
2023-04-09T10:26:19.704Z,11.20
2023-04-09T10:31:22.940Z,11.30
2023-04-09T10:36:28.258Z,11.30
2023-04-09T10:41:34.479Z,11.30
2023-04-09T10:46:37.784Z,11.40
2023-04-09T10:51:41.767Z,11.50
2023-04-09T10:57:07.686Z,11.60
2023-04-09T11:02:18.645Z,11.70
2023-04-09T11:07:25.539Z,11.80
2023-04-09T11:12:28.788Z,11.80
2023-04-09T11:17:37.197Z,11.90
2023-04-09T11:22:40.562Z,11.90
2023-04-09T11:27:47.143Z,12.10
2023-04-09T11:32:51.181Z,12.30
2023-04-09T11:37:54.803Z,12.20
2023-04-09T11:42:58.079Z,12.00
2023-04-09T11:48:03.483Z,11.90
2023-04-09T11:53:21.083Z,12.00
2023-04-09T11:58:26.816Z,12.10
2023-04-09T12:03:33.782Z,12.40
2023-04-09T12:08:38.208Z,12.50
2023-04-09T12:13:45.078Z,12.50
2023-04-09T12:18:48.641Z,12.40
2023-04-09T12:23:51.928Z,12.50
2023-04-09T12:28:55.057Z,12.70
2023-04-09T12:33:58.316Z,12.70
2023-04-09T12:39:01.645Z,12.70
2023-04-09T12:44:05.538Z,12.50
2023-04-09T12:49:09.548Z,12.50
2023-04-09T12:54:12.779Z,12.40
2023-04-09T12:59:16.104Z,12.50
2023-04-09T13:04:19.605Z,12.50
2023-04-09T13:09:22.918Z,12.50
2023-04-09T13:14:26.288Z,12.40
2023-04-09T13:19:29.425Z,12.40
2023-04-09T13:24:32.831Z,12.50
2023-04-09T13:29:36.480Z,12.50
2023-04-09T13:34:40.128Z,12.40
2023-04-09T13:39:45.172Z,12.50
2023-04-09T13:44:48.293Z,12.50
2023-04-09T13:49:54.155Z,12.60
2023-04-09T13:54:57.310Z,12.70
2023-04-09T14:00:04.413Z,12.70
2023-04-09T14:05:08.151Z,12.80
2023-04-09T14:10:11.822Z,12.90
2023-04-09T14:15:15.296Z,12.90
2023-04-09T14:20:21.502Z,12.90
2023-04-09T14:25:24.699Z,13.10
2023-04-09T14:30:28.050Z,13.30
2023-04-09T14:35:31.296Z,13.40
2023-04-09T14:40:34.632Z,13.40
2023-04-09T14:45:38.521Z,14.00
2023-04-09T14:50:43.536Z,14.40
2023-04-09T14:55:46.955Z,14.60
2023-04-09T15:00:50.801Z,14.70
2023-04-09T15:05:54.128Z,15.00
2023-04-09T15:10:57.527Z,15.20
2023-04-09T15:16:00.935Z,15.40
2023-04-09T15:21:04.792Z,15.40
2023-04-09T15:26:08.067Z,15.30
2023-04-09T15:31:11.789Z,15.80
2023-04-09T15:36:15.246Z,15.30
2023-04-09T15:41:18.646Z,14.90
2023-04-09T15:46:22.315Z,14.70
2023-04-09T15:51:27.484Z,14.30
2023-04-09T15:56:30.830Z,14.50
2023-04-09T16:01:36.144Z,14.40
2023-04-09T16:06:40.229Z,14.10
2023-04-09T16:11:43.459Z,14.20
2023-04-09T16:16:50.138Z,13.90
2023-04-09T16:21:54.286Z,13.80
2023-04-09T16:26:58.053Z,13.60
2023-04-09T16:32:01.575Z,13.20
2023-04-09T16:37:05.067Z,12.80
2023-04-09T16:42:08.376Z,12.50
2023-04-09T16:47:11.739Z,12.10
2023-04-09T16:52:15.164Z,11.60
2023-04-09T16:57:18.685Z,11.40
2023-04-09T17:02:22.455Z,11.20
2023-04-09T17:07:26.145Z,11.10
2023-04-09T17:12:29.275Z,11.10
2023-04-09T17:17:33.844Z,11.00
2023-04-09T17:22:38.566Z,10.90
2023-04-09T17:27:44.307Z,11.00
2023-04-09T17:32:48.359Z,11.20
2023-04-09T17:37:51.686Z,11.10
2023-04-09T17:42:56.180Z,11.00
2023-04-09T17:48:00.431Z,10.90
2023-04-09T17:53:04.214Z,10.80
2023-04-09T17:58:07.610Z,10.60
2023-04-09T18:03:13.219Z,10.50
2023-04-09T18:08:16.859Z,10.30
2023-04-09T18:13:20.367Z,10.10
2023-04-09T18:18:23.601Z,9.90
2023-04-09T18:23:27.538Z,9.80
2023-04-09T18:28:30.733Z,9.70
2023-04-09T18:33:34.818Z,9.50
2023-04-09T18:38:38.275Z,9.30
2023-04-09T18:43:41.847Z,9.20
2023-04-09T18:48:47.355Z,9.00
2023-04-09T18:53:53.327Z,8.90
2023-04-09T18:58:57.405Z,8.70
2023-04-09T19:04:00.957Z,8.60
2023-04-09T19:09:05.045Z,8.50
2023-04-09T19:14:09.242Z,8.40
2023-04-09T19:19:13.653Z,8.20
2023-04-09T19:24:16.934Z,8.10
2023-04-09T19:29:21.830Z,8.00
2023-04-09T19:34:25.313Z,7.90
2023-04-09T19:39:29.734Z,7.70
2023-04-09T19:44:33.633Z,7.60
2023-04-09T19:49:37.590Z,7.60
2023-04-09T19:54:41.334Z,7.40
2023-04-09T19:59:44.582Z,7.30
2023-04-09T20:04:48.039Z,7.40
2023-04-09T20:09:52.980Z,7.50
2023-04-09T20:15:00.130Z,7.50
2023-04-09T20:20:07.316Z,7.50
2023-04-09T20:25:14.604Z,7.40
2023-04-09T20:30:18.957Z,7.40
2023-04-09T20:35:22.546Z,7.30
2023-04-09T20:40:25.750Z,7.30
2023-04-09T20:45:29.808Z,7.20
2023-04-09T20:50:33.047Z,7.20
2023-04-09T20:55:37.417Z,7.20
2023-04-09T21:00:40.734Z,7.10
2023-04-09T21:05:44.015Z,7.00
2023-04-09T21:10:47.243Z,6.90
2023-04-09T21:15:50.702Z,7.10
2023-04-09T21:20:54.486Z,7.10
2023-04-09T21:25:57.664Z,7.00
2023-04-09T21:31:01.001Z,7.00
2023-04-09T21:36:05.001Z,6.70
2023-04-09T21:41:08.870Z,6.50
2023-04-09T21:46:12.183Z,6.30
2023-04-09T21:51:15.487Z,6.20
2023-04-09T21:56:18.671Z,6.20
2023-04-09T22:01:29.071Z,6.20
2023-04-09T22:06:32.747Z,6.20
2023-04-09T22:11:36.069Z,6.10
2023-04-09T22:16:39.308Z,6.10
2023-04-09T22:21:42.409Z,6.00
2023-04-09T22:26:47.301Z,6.00
2023-04-09T22:31:50.530Z,6.00
2023-04-09T22:36:53.872Z,6.10
2023-04-09T22:41:57.154Z,6.10
2023-04-09T22:47:00.427Z,6.00
2023-04-09T22:52:03.822Z,6.00
2023-04-09T22:57:07.110Z,6.00
2023-04-09T23:02:10.855Z,5.70
2023-04-09T23:07:14.881Z,5.70
2023-04-09T23:12:18.459Z,5.70
2023-04-09T23:17:23.117Z,5.70
2023-04-09T23:22:27.614Z,5.70
2023-04-09T23:27:30.848Z,5.60
2023-04-09T23:32:34.126Z,5.50
2023-04-09T23:37:37.892Z,5.40
2023-04-09T23:42:41.195Z,5.30
2023-04-09T23:47:44.846Z,5.30
2023-04-09T23:52:50.057Z,5.20
2023-04-09T23:57:53.399Z,5.10
